createdAt,value
2022-10-26T00:01:16.596Z,6.38
2022-10-26T00:03:46.544Z,5.65
2022-10-26T00:06:19.067Z,6.18
2022-10-26T00:08:46.646Z,5.88
2022-10-26T00:11:14.414Z,6.05
2022-10-26T00:13:42.328Z,5.55
2022-10-26T00:16:12.103Z,6.35
2022-10-26T00:18:39.232Z,5.53
2022-10-26T00:21:07.922Z,5.22
2022-10-26T00:23:35.271Z,5.57
2022-10-26T00:26:02.704Z,5.10
2022-10-26T00:28:30.056Z,4.95
2022-10-26T00:31:05.706Z,5.22
2022-10-26T00:33:38.855Z,5.00
2022-10-26T00:36:06.465Z,5.70
2022-10-26T00:38:33.718Z,5.55
2022-10-26T00:41:01.304Z,5.00
2022-10-26T00:43:28.324Z,5.07
2022-10-26T00:45:57.530Z,5.20
2022-10-26T00:48:38.478Z,5.53
2022-10-26T00:51:35.501Z,4.85
2022-10-26T00:54:05.841Z,4.15
2022-10-26T00:56:34.888Z,4.60
2022-10-26T00:59:09.943Z,5.00
2022-10-26T01:01:41.218Z,4.72
2022-10-26T01:04:08.451Z,5.25
2022-10-26T01:06:38.238Z,4.75
2022-10-26T01:09:06.362Z,4.88
2022-10-26T01:11:33.859Z,5.47
2022-10-26T01:14:04.570Z,4.97
2022-10-26T01:16:46.435Z,4.47
2022-10-26T01:19:31.688Z,4.05
2022-10-26T01:22:11.449Z,4.60
2022-10-26T01:24:44.442Z,4.57
2022-10-26T01:27:38.690Z,4.78
2022-10-26T01:30:17.882Z,4.10
2022-10-26T01:33:22.645Z,4.63
2022-10-26T01:36:13.624Z,4.40
2022-10-26T01:38:50.961Z,4.47
2022-10-26T01:41:29.993Z,4.68
2022-10-26T01:44:05.178Z,4.32
2022-10-26T01:46:38.527Z,3.88
2022-10-26T01:49:18.267Z,4.65
2022-10-26T01:51:48.254Z,3.53
2022-10-26T01:54:15.520Z,3.90
2022-10-26T01:56:48.457Z,4.15
2022-10-26T01:59:18.623Z,4.07
2022-10-26T02:01:49.006Z,4.13
2022-10-26T02:04:42.355Z,3.95
2022-10-26T02:07:24.510Z,3.70
2022-10-26T02:10:04.759Z,3.95
2022-10-26T02:12:56.646Z,3.92
2022-10-26T02:15:38.802Z,3.85
2022-10-26T02:18:09.093Z,4.35
2022-10-26T02:20:47.546Z,3.67
2022-10-26T02:23:15.705Z,3.80
2022-10-26T02:25:48.181Z,3.78
2022-10-26T02:28:20.269Z,3.67
2022-10-26T02:30:51.046Z,3.75
2022-10-26T02:33:20.366Z,3.92
2022-10-26T02:35:51.173Z,3.67
2022-10-26T02:38:21.630Z,4.35
2022-10-26T02:40:51.647Z,4.18
2022-10-26T02:43:22.437Z,3.65
2022-10-26T02:45:58.009Z,3.55
2022-10-26T02:48:25.465Z,3.17
2022-10-26T02:51:19.425Z,3.90
2022-10-26T02:53:52.165Z,3.58
2022-10-26T02:56:25.394Z,4.45
2022-10-26T02:59:02.538Z,3.63
2022-10-26T03:01:31.414Z,3.38
2022-10-26T03:03:59.965Z,3.67
2022-10-26T03:06:27.636Z,3.72
2022-10-26T03:08:55.017Z,4.30
2022-10-26T03:11:22.281Z,3.53
2022-10-26T03:13:49.448Z,3.72
2022-10-26T03:16:16.688Z,4.05
2022-10-26T03:18:43.738Z,3.55
2022-10-26T03:21:10.878Z,4.32
2022-10-26T03:23:37.967Z,4.05
2022-10-26T03:26:05.277Z,4.00
2022-10-26T03:28:32.354Z,4.65
2022-10-26T03:30:59.611Z,3.88
2022-10-26T03:33:27.243Z,4.80
2022-10-26T03:35:56.994Z,5.10
2022-10-26T03:38:24.461Z,4.28
2022-10-26T03:40:54.643Z,5.03
2022-10-26T03:43:21.813Z,4.30
2022-10-26T03:45:48.843Z,4.05
2022-10-26T03:48:16.111Z,4.45
2022-10-26T03:50:44.969Z,4.28
2022-10-26T03:53:12.262Z,4.32
2022-10-26T03:55:39.420Z,4.03
2022-10-26T03:58:07.248Z,4.13
2022-10-26T04:00:34.390Z,4.30
2022-10-26T04:03:01.499Z,3.97
2022-10-26T04:05:30.513Z,4.53
2022-10-26T04:08:00.196Z,4.25
2022-10-26T04:10:27.961Z,4.55
2022-10-26T04:12:57.501Z,4.43
2022-10-26T04:15:25.179Z,4.43
2022-10-26T04:17:59.989Z,5.15
2022-10-26T04:20:28.234Z,4.47
2022-10-26T04:23:05.681Z,4.97
2022-10-26T04:25:33.926Z,4.43
2022-10-26T04:28:02.899Z,5.55
2022-10-26T04:30:30.486Z,4.70
2022-10-26T04:32:57.550Z,4.60
2022-10-26T04:35:25.040Z,5.68
2022-10-26T04:37:52.378Z,4.32
2022-10-26T04:40:20.663Z,4.50
2022-10-26T04:42:48.584Z,4.70
2022-10-26T04:45:17.137Z,4.53
2022-10-26T04:47:44.236Z,4.97
2022-10-26T04:50:12.746Z,5.82
2022-10-26T04:52:40.600Z,4.82
2022-10-26T04:55:08.329Z,5.20
2022-10-26T04:57:36.454Z,4.88
2022-10-26T05:00:05.542Z,4.97
2022-10-26T05:02:32.722Z,5.32
2022-10-26T05:05:00.089Z,5.40
2022-10-26T05:07:27.223Z,5.22
2022-10-26T05:09:54.580Z,5.50
2022-10-26T05:12:21.675Z,5.75
2022-10-26T05:14:48.886Z,5.63
2022-10-26T05:17:16.350Z,5.75
2022-10-26T05:19:43.493Z,5.32
2022-10-26T05:22:10.903Z,5.07
2022-10-26T05:24:38.095Z,5.10
2022-10-26T05:27:05.138Z,5.50
2022-10-26T05:29:32.231Z,6.15
2022-10-26T05:31:59.434Z,6.10
2022-10-26T05:34:26.514Z,7.28
2022-10-26T05:36:54.806Z,8.50
2022-10-26T05:39:22.477Z,6.72
2022-10-26T05:41:49.827Z,7.35
2022-10-26T05:44:16.903Z,7.07
2022-10-26T05:46:44.040Z,7.55
2022-10-26T05:49:11.312Z,6.47
2022-10-26T05:51:39.810Z,6.55
2022-10-26T05:54:08.362Z,6.65
2022-10-26T05:56:42.134Z,6.88
2022-10-26T05:59:15.299Z,7.43
2022-10-26T06:02:07.554Z,7.18
2022-10-26T06:04:48.189Z,6.32
2022-10-26T06:07:21.102Z,6.47
2022-10-26T06:12:19.475Z,7.55
2022-10-26T06:14:47.576Z,8.23
2022-10-26T06:17:35.819Z,7.03
2022-10-26T06:20:30.324Z,8.50
2022-10-26T06:23:24.890Z,9.50
2022-10-26T06:25:54.853Z,9.23
2022-10-26T06:28:47.267Z,8.82
2022-10-26T06:31:18.489Z,10.60
2022-10-26T06:33:48.452Z,10.13
2022-10-26T06:36:27.655Z,7.97
2022-10-26T06:39:01.972Z,7.10
2022-10-26T06:41:32.695Z,7.32
2022-10-26T06:44:00.380Z,10.43
2022-10-26T06:46:46.363Z,10.15
2022-10-26T06:49:28.157Z,6.63
2022-10-26T06:52:01.879Z,6.63
2022-10-26T06:54:43.520Z,6.50
2022-10-26T06:57:13.175Z,6.68
2022-10-26T06:59:51.826Z,6.18
2022-10-26T07:02:19.920Z,6.63
2022-10-26T07:04:47.599Z,6.05
2022-10-26T07:07:18.657Z,6.93
2022-10-26T07:09:46.850Z,18.23
2022-10-26T07:12:14.061Z,12.88
2022-10-26T07:14:41.301Z,7.20
2022-10-26T07:17:09.579Z,5.78
2022-10-26T07:19:36.734Z,7.18
2022-10-26T07:22:04.210Z,6.78
2022-10-26T07:24:31.556Z,7.35
2022-10-26T07:26:59.192Z,8.25
2022-10-26T07:29:27.353Z,8.75
2022-10-26T07:34:26.590Z,8.23
2022-10-26T07:40:10.164Z,8.30
2022-10-26T07:42:37.629Z,8.00
2022-10-26T07:45:05.323Z,7.40
2022-10-26T07:47:32.426Z,7.18
2022-10-26T07:49:59.592Z,7.18
2022-10-26T07:52:26.616Z,6.70
2022-10-26T07:54:53.764Z,6.22
2022-10-26T07:57:20.846Z,6.75
2022-10-26T07:59:47.933Z,6.80
2022-10-26T08:02:15.207Z,6.75
2022-10-26T08:04:42.216Z,7.20
2022-10-26T08:07:09.363Z,7.68
2022-10-26T08:09:36.346Z,7.68
2022-10-26T08:12:03.439Z,7.10
2022-10-26T08:14:30.604Z,7.53
2022-10-26T08:16:57.740Z,6.30
2022-10-26T08:19:24.910Z,6.03
2022-10-26T08:21:52.684Z,7.40
2022-10-26T08:24:19.723Z,6.75
2022-10-26T08:26:46.867Z,7.60
2022-10-26T08:29:13.847Z,7.55
2022-10-26T08:31:41.063Z,8.43
2022-10-26T08:34:08.494Z,4.78
2022-10-26T08:36:35.648Z,5.63
2022-10-26T08:39:02.765Z,4.22
2022-10-26T08:41:43.426Z,4.53
2022-10-26T08:44:38.193Z,4.78
2022-10-26T08:47:05.407Z,4.78
2022-10-26T08:49:58.815Z,4.70
2022-10-26T08:53:02.388Z,4.25
2022-10-26T08:58:08.748Z,4.57
2022-10-26T09:00:36.080Z,4.30
2022-10-26T09:03:14.342Z,4.72
2022-10-26T09:05:53.436Z,4.72
2022-10-26T09:08:36.947Z,4.05
2022-10-26T09:11:10.902Z,4.68
2022-10-26T09:13:54.145Z,4.13
2022-10-26T09:16:28.134Z,4.40
2022-10-26T09:19:26.561Z,5.25
2022-10-26T09:22:07.185Z,5.47
2022-10-26T09:24:40.001Z,4.90
2022-10-26T09:29:52.159Z,5.47
2022-10-26T09:32:27.051Z,4.72
2022-10-26T09:34:59.640Z,5.47
2022-10-26T09:37:31.431Z,5.07
2022-10-26T09:40:08.742Z,5.28
2022-10-26T09:43:03.602Z,4.70
2022-10-26T09:45:36.211Z,4.82
2022-10-26T09:48:38.486Z,4.35
2022-10-26T09:51:05.763Z,4.38
2022-10-26T09:53:33.373Z,4.55
2022-10-26T09:56:10.411Z,4.93
2022-10-26T09:59:02.456Z,3.90
2022-10-26T10:01:30.437Z,5.15
2022-10-26T10:04:22.870Z,4.47
2022-10-26T10:06:52.606Z,3.88
2022-10-26T10:09:24.883Z,3.60
2022-10-26T10:12:03.340Z,5.30
2022-10-26T10:14:39.911Z,3.78
2022-10-26T10:19:49.466Z,4.68
2022-10-26T10:22:16.458Z,4.25
2022-10-26T10:24:55.096Z,4.43
2022-10-26T10:27:23.561Z,4.45
2022-10-26T10:29:53.183Z,4.47
2022-10-26T10:32:23.186Z,4.90
2022-10-26T10:34:58.947Z,5.00
2022-10-26T10:37:47.486Z,4.93
2022-10-26T10:40:26.896Z,4.90
2022-10-26T10:43:05.957Z,5.60
2022-10-26T10:45:35.203Z,5.53
2022-10-26T10:48:13.206Z,5.65
2022-10-26T10:50:53.376Z,5.28
2022-10-26T10:53:32.215Z,5.22
2022-10-26T10:56:11.413Z,5.15
2022-10-26T10:59:06.251Z,5.15
2022-10-26T11:01:40.003Z,5.50
2022-10-26T11:04:16.056Z,5.28
2022-10-26T11:06:45.464Z,5.20
2022-10-26T11:09:17.267Z,5.63
2022-10-26T11:11:54.382Z,4.30
2022-10-26T11:14:30.925Z,5.25
2022-10-26T11:17:20.302Z,5.28
2022-10-26T11:20:05.837Z,5.68
2022-10-26T11:22:47.008Z,5.30
2022-10-26T11:25:35.660Z,5.35
2022-10-26T11:28:26.045Z,6.03
2022-10-26T11:31:00.824Z,5.65
2022-10-26T11:33:48.799Z,5.53
2022-10-26T11:36:21.974Z,5.68
2022-10-26T11:39:06.543Z,5.40
2022-10-26T11:41:45.842Z,5.78
2022-10-26T11:44:23.067Z,4.97
2022-10-26T11:46:55.638Z,5.68
2022-10-26T11:49:38.494Z,6.05
2022-10-26T11:52:22.328Z,5.63
2022-10-26T11:55:04.972Z,5.70
2022-10-26T11:57:37.056Z,5.05
2022-10-26T12:00:11.458Z,6.03
2022-10-26T12:05:16.031Z,5.13
2022-10-26T12:07:56.280Z,5.10
2022-10-26T12:10:33.474Z,5.90
2022-10-26T12:13:22.935Z,5.28
2022-10-26T12:16:11.906Z,4.57
2022-10-26T12:19:00.523Z,4.47
2022-10-26T12:21:32.472Z,5.00
2022-10-26T12:24:22.043Z,4.60
2022-10-26T12:26:59.839Z,4.22
2022-10-26T12:29:48.086Z,5.18
2022-10-26T12:32:43.733Z,4.53
2022-10-26T12:35:40.426Z,4.95
2022-10-26T12:38:29.045Z,4.07
2022-10-26T12:41:04.574Z,4.50
2022-10-26T12:43:31.760Z,4.70
2022-10-26T12:46:14.296Z,4.43
2022-10-26T12:48:46.927Z,4.20
2022-10-26T12:51:22.971Z,5.68
2022-10-26T12:54:05.024Z,4.32
2022-10-26T12:56:59.540Z,4.18
2022-10-26T12:59:43.406Z,4.30
2022-10-26T13:02:31.813Z,4.38
2022-10-26T13:05:08.276Z,4.75
2022-10-26T13:07:38.116Z,4.22
2022-10-26T13:10:26.588Z,4.60
2022-10-26T13:12:58.890Z,4.15
2022-10-26T13:15:54.663Z,4.55
2022-10-26T13:18:22.751Z,4.72
2022-10-26T13:21:11.783Z,4.57
2022-10-26T13:23:41.529Z,5.10
2022-10-26T13:26:16.278Z,4.47
2022-10-26T13:28:54.237Z,4.82
2022-10-26T13:31:33.208Z,5.45
2022-10-26T13:34:31.880Z,4.18
2022-10-26T13:37:17.557Z,5.13
2022-10-26T13:39:47.551Z,3.95
2022-10-26T13:42:24.347Z,4.78
2022-10-26T13:45:10.346Z,4.95
2022-10-26T13:47:52.797Z,4.60
2022-10-26T13:50:27.558Z,5.03
2022-10-26T13:53:17.677Z,4.68
2022-10-26T13:55:59.331Z,4.68
2022-10-26T13:58:33.418Z,4.78
2022-10-26T14:01:15.680Z,4.80
2022-10-26T14:03:43.659Z,4.97
2022-10-26T14:06:13.633Z,5.38
2022-10-26T14:08:43.018Z,5.65
2022-10-26T14:11:23.415Z,4.95
2022-10-26T14:13:51.686Z,5.13
2022-10-26T14:16:21.072Z,5.28
2022-10-26T14:18:49.790Z,5.20
2022-10-26T14:21:21.106Z,5.35
2022-10-26T14:24:07.755Z,5.43
2022-10-26T14:26:42.340Z,6.07
2022-10-26T14:29:18.560Z,4.80
2022-10-26T14:31:45.796Z,5.32
2022-10-26T14:34:13.378Z,5.10
2022-10-26T14:36:42.917Z,5.15
2022-10-26T14:39:27.266Z,4.43
2022-10-26T14:41:55.619Z,4.90
2022-10-26T14:44:25.493Z,4.72
2022-10-26T14:46:52.958Z,4.68
2022-10-26T14:49:24.042Z,5.35
2022-10-26T14:51:57.977Z,4.85
2022-10-26T14:54:28.205Z,5.40
2022-10-26T14:56:56.407Z,5.47
2022-10-26T14:59:29.908Z,5.82
2022-10-26T15:02:19.855Z,5.57
2022-10-26T15:05:17.118Z,5.70
2022-10-26T15:07:45.855Z,5.53
2022-10-26T15:10:34.884Z,5.70
2022-10-26T15:13:20.568Z,4.65
2022-10-26T15:15:49.951Z,5.85
2022-10-26T15:18:23.530Z,5.95
2022-10-26T15:20:52.178Z,6.15
2022-10-26T15:23:21.517Z,6.22
2022-10-26T15:26:04.484Z,6.28
2022-10-26T15:28:49.842Z,6.00
2022-10-26T15:31:17.009Z,6.30
2022-10-26T15:33:53.239Z,5.40
2022-10-26T15:36:26.163Z,7.18
2022-10-26T15:38:54.001Z,7.47
2022-10-26T15:41:31.278Z,6.07
2022-10-26T15:44:06.334Z,6.50
2022-10-26T15:46:36.592Z,6.88
2022-10-26T15:49:06.680Z,28.60
2022-10-26T15:51:34.510Z,28.00
2022-10-26T15:54:05.664Z,10.35
2022-10-26T15:56:34.847Z,7.97
2022-10-26T15:59:02.496Z,6.90
2022-10-26T16:01:30.619Z,6.63
2022-10-26T16:03:57.917Z,6.97
2022-10-26T16:06:28.135Z,7.00
2022-10-26T16:09:01.822Z,7.25
2022-10-26T16:11:29.974Z,8.05
2022-10-26T16:13:59.691Z,6.88
2022-10-26T16:16:31.635Z,7.05
2022-10-26T16:19:18.318Z,7.25
2022-10-26T16:21:46.228Z,5.78
2022-10-26T16:24:13.425Z,6.35
2022-10-26T16:26:40.536Z,6.45
2022-10-26T16:29:07.714Z,5.32
2022-10-26T16:31:34.850Z,5.60
2022-10-26T16:34:04.206Z,5.68
2022-10-26T16:36:34.834Z,5.68
2022-10-26T16:41:34.903Z,5.57
2022-10-26T16:44:02.012Z,5.25
2022-10-26T16:46:29.250Z,6.35
2022-10-26T16:48:56.489Z,6.82
2022-10-26T16:51:26.872Z,6.20
2022-10-26T16:53:56.335Z,6.10
2022-10-26T16:56:25.735Z,7.13
2022-10-26T16:58:53.019Z,12.75
2022-10-26T17:01:22.552Z,12.05
2022-10-26T17:03:51.651Z,10.65
2022-10-26T17:06:19.588Z,9.18
2022-10-26T17:08:47.345Z,6.95
2022-10-26T17:11:18.074Z,7.03
2022-10-26T17:13:46.292Z,6.88
2022-10-26T17:16:17.486Z,5.70
2022-10-26T17:18:45.850Z,5.30
2022-10-26T17:21:14.650Z,5.32
2022-10-26T17:23:41.935Z,5.90
2022-10-26T17:26:11.703Z,5.72
2022-10-26T17:28:39.221Z,6.00
2022-10-26T17:31:08.561Z,6.35
2022-10-26T17:33:37.363Z,6.47
2022-10-26T17:36:06.232Z,15.68
2022-10-26T17:38:42.078Z,13.50
2022-10-26T17:41:15.291Z,10.93
2022-10-26T17:43:44.031Z,12.32
2022-10-26T17:46:13.646Z,11.55
2022-10-26T17:48:40.969Z,11.77
2022-10-26T17:51:12.813Z,10.43
2022-10-26T17:53:40.374Z,11.32
2022-10-26T17:56:13.307Z,10.52
2022-10-26T18:01:12.881Z,11.40
2022-10-26T18:03:41.762Z,12.00
2022-10-26T18:06:09.116Z,10.73
2022-10-26T18:08:37.951Z,11.10
2022-10-26T18:11:06.993Z,10.63
2022-10-26T18:13:34.582Z,11.90
2022-10-26T18:16:31.387Z,10.85
2022-10-26T18:19:04.603Z,14.80
2022-10-26T18:21:34.200Z,9.05
2022-10-26T18:24:01.449Z,9.63
2022-10-26T18:26:32.146Z,9.75
2022-10-26T18:29:01.289Z,8.98
2022-10-26T18:31:30.028Z,8.98
2022-10-26T18:34:02.329Z,8.90
2022-10-26T18:36:30.333Z,9.63
2022-10-26T18:38:57.715Z,9.75
2022-10-26T18:41:26.382Z,9.52
2022-10-26T18:43:59.041Z,8.90
2022-10-26T18:46:31.432Z,7.70
2022-10-26T18:49:01.079Z,9.50
2022-10-26T18:51:34.091Z,8.70
2022-10-26T18:54:01.637Z,9.20
2022-10-26T18:56:28.944Z,10.07
2022-10-26T18:58:59.547Z,11.10
2022-10-26T19:01:29.412Z,9.70
2022-10-26T19:03:59.718Z,8.95
2022-10-26T19:06:29.866Z,9.43
2022-10-26T19:08:57.934Z,9.73
2022-10-26T19:11:27.716Z,9.73
2022-10-26T19:13:55.322Z,9.90
2022-10-26T19:16:45.522Z,9.38
2022-10-26T19:19:12.462Z,10.32
2022-10-26T19:21:39.631Z,10.25
2022-10-26T19:24:12.610Z,9.77
2022-10-26T19:29:16.580Z,9.23
2022-10-26T19:31:45.923Z,9.32
2022-10-26T19:34:13.961Z,10.52
2022-10-26T19:36:45.120Z,9.40
2022-10-26T19:39:14.563Z,9.90
2022-10-26T19:41:41.951Z,10.20
2022-10-26T19:44:11.200Z,10.18
2022-10-26T19:46:39.704Z,12.52
2022-10-26T19:49:07.464Z,13.55
2022-10-26T19:51:34.823Z,14.25
2022-10-26T19:54:06.204Z,13.30
2022-10-26T19:56:35.434Z,14.00
2022-10-26T19:59:03.361Z,12.40
2022-10-26T20:01:30.591Z,13.77
2022-10-26T20:03:58.116Z,13.25
2022-10-26T20:06:25.166Z,15.23
2022-10-26T20:08:52.896Z,14.25
2022-10-26T20:11:20.643Z,13.85
2022-10-26T20:13:48.767Z,14.77
2022-10-26T20:16:17.863Z,14.20
2022-10-26T20:18:49.037Z,14.52
2022-10-26T20:21:17.773Z,12.30
2022-10-26T20:23:45.348Z,13.25
2022-10-26T20:26:20.151Z,12.25
2022-10-26T20:28:51.269Z,12.02
2022-10-26T20:31:19.657Z,13.02
2022-10-26T20:33:50.755Z,12.95
2022-10-26T20:36:17.983Z,12.52
2022-10-26T20:38:45.294Z,13.95
2022-10-26T20:41:13.254Z,14.25
2022-10-26T20:43:41.239Z,14.77
2022-10-26T20:46:37.910Z,14.52
2022-10-26T20:49:05.361Z,12.90
2022-10-26T20:52:19.316Z,12.63
2022-10-26T20:54:52.971Z,11.77
2022-10-26T20:57:28.494Z,13.00
2022-10-26T21:00:04.261Z,12.52
2022-10-26T21:02:31.975Z,11.82
2022-10-26T21:04:59.061Z,12.27
2022-10-26T21:07:26.210Z,12.15
2022-10-26T21:09:53.400Z,11.23
2022-10-26T21:12:20.589Z,11.07
2022-10-26T21:14:47.738Z,10.85
2022-10-26T21:17:14.815Z,10.90
2022-10-26T21:19:42.131Z,10.82
2022-10-26T21:22:09.411Z,9.20
2022-10-26T21:27:08.547Z,11.45
2022-10-26T21:29:35.699Z,12.90
2022-10-26T21:32:02.946Z,12.60
2022-10-26T21:34:29.983Z,12.93
2022-10-26T21:36:58.374Z,13.25
2022-10-26T21:39:25.427Z,12.02
2022-10-26T21:41:52.974Z,11.55
2022-10-26T21:44:38.916Z,10.35
2022-10-26T21:47:07.177Z,9.85
2022-10-26T21:49:34.211Z,9.88
2022-10-26T21:52:01.435Z,10.40
2022-10-26T21:54:28.682Z,10.95
2022-10-26T21:56:55.747Z,10.50
2022-10-26T21:59:22.927Z,9.88
2022-10-26T22:01:50.154Z,10.00
2022-10-26T22:04:17.379Z,10.02
2022-10-26T22:06:44.502Z,9.98
2022-10-26T22:09:11.758Z,10.45
2022-10-26T22:11:38.869Z,10.43
2022-10-26T22:14:06.196Z,9.95
2022-10-26T22:16:33.728Z,9.18
2022-10-26T22:19:06.671Z,9.63
2022-10-26T22:21:39.549Z,9.10
2022-10-26T22:24:07.641Z,9.45
2022-10-26T22:26:36.753Z,8.60
2022-10-26T22:29:05.032Z,8.85
2022-10-26T22:31:34.858Z,10.15
2022-10-26T22:34:07.716Z,8.43
2022-10-26T22:36:35.877Z,9.25
2022-10-26T22:39:03.498Z,7.82
2022-10-26T22:41:31.281Z,8.07
2022-10-26T22:43:58.414Z,7.95
2022-10-26T22:46:28.223Z,7.82
2022-10-26T22:48:57.209Z,7.55
2022-10-26T22:51:25.836Z,8.13
2022-10-26T22:53:54.768Z,7.85
2022-10-26T22:56:23.621Z,7.82
2022-10-26T22:58:54.160Z,7.15
2022-10-26T23:01:24.197Z,6.13
2022-10-26T23:03:53.030Z,6.78
2022-10-26T23:06:20.634Z,7.05
2022-10-26T23:08:47.948Z,6.03
2022-10-26T23:11:18.115Z,7.47
2022-10-26T23:13:45.370Z,8.90
2022-10-26T23:16:20.678Z,7.82
2022-10-26T23:18:48.519Z,7.47
2022-10-26T23:21:17.325Z,9.30
2022-10-26T23:23:44.870Z,9.65
2022-10-26T23:26:14.953Z,8.13
2022-10-26T23:28:43.726Z,8.38
2022-10-26T23:31:23.436Z,7.75
2022-10-26T23:33:51.624Z,8.50
2022-10-26T23:36:19.159Z,7.45
2022-10-26T23:38:46.765Z,8.02
2022-10-26T23:41:14.287Z,6.75
2022-10-26T23:43:41.468Z,7.28
2022-10-26T23:46:08.861Z,7.50
2022-10-26T23:48:36.015Z,7.60
2022-10-26T23:51:03.027Z,6.45
2022-10-26T23:53:30.164Z,7.50
2022-10-26T23:55:57.102Z,7.22
2022-10-26T23:58:24.263Z,5.82
